Whitland, United Kingdom
Current Conditions -  °F | °C
As of 3:50 PM on Wednesday 28 Jan 2015 (Local Time) from EGOP Reporting Station
Few Clouds Few Clouds  
Wind Chill: 30°   Ceiling: Unl
Heat Index: 41°   Visibility: 6mi
Dew Point: 32°   Wind: 30mph
Humidity: 70%   Direction: 270°W
Pressure: 29.71"   Gusts: NA
Location:  51.82°N, 4.61°W
Report Text: EGOP 281550Z AUTO 27026KT 9999 // FEW100/// 05/00 Q1006
Loading
Personal Weather Stations






























Interactive Weather Map New forecast layout! Learn more

10-Day Weather Forecast

Advertisements
Track Severe Weather on mobile